sensor_id;sensor_type;location;lat;lon;timestamp;pressure;altitude;pressure_sealevel;temperature;humidity
26083;BME280;13848;49.018;12.078;2023-02-12T00:01:37;99518.34;;;4.08;72.83
26083;BME280;13848;49.018;12.078;2023-02-12T00:04:03;99513.59;;;4.12;72.66
26083;BME280;13848;49.018;12.078;2023-02-12T00:06:29;99501.66;;;4.16;72.43
26083;BME280;13848;49.018;12.078;2023-02-12T00:08:56;99502.78;;;4.23;72.46
26083;BME280;13848;49.018;12.078;2023-02-12T00:11:24;99495.50;;;4.25;72.52
26083;BME280;13848;49.018;12.078;2023-02-12T00:13:51;99491.16;;;4.24;72.66
26083;BME280;13848;49.018;12.078;2023-02-12T00:16:20;99486.66;;;4.24;73.35
26083;BME280;13848;49.018;12.078;2023-02-12T00:18:46;99491.69;;;4.27;72.79
26083;BME280;13848;49.018;12.078;2023-02-12T00:21:12;99488.91;;;4.29;72.99
26083;BME280;13848;49.018;12.078;2023-02-12T00:23:39;99493.28;;;4.30;72.81
26083;BME280;13848;49.018;12.078;2023-02-12T00:26:07;99492.53;;;4.28;72.76
26083;BME280;13848;49.018;12.078;2023-02-12T00:28:34;99487.94;;;4.30;73.00
26083;BME280;13848;49.018;12.078;2023-02-12T00:31:04;99496.38;;;4.35;72.84
26083;BME280;13848;49.018;12.078;2023-02-12T00:33:30;99495.22;;;4.28;73.26
26083;BME280;13848;49.018;12.078;2023-02-12T00:35:56;99501.25;;;4.20;73.83
26083;BME280;13848;49.018;12.078;2023-02-12T00:38:22;99497.16;;;4.16;73.93
26083;BME280;13848;49.018;12.078;2023-02-12T00:40:48;99497.59;;;4.21;73.56
26083;BME280;13848;49.018;12.078;2023-02-12T00:43:16;99495.75;;;4.22;73.79
26083;BME280;13848;49.018;12.078;2023-02-12T00:45:43;99504.91;;;4.19;74.24
26083;BME280;13848;49.018;12.078;2023-02-12T00:48:09;99512.50;;;4.24;73.84
26083;BME280;13848;49.018;12.078;2023-02-12T00:50:35;99518.28;;;4.29;73.53
26083;BME280;13848;49.018;12.078;2023-02-12T00:53:01;99519.25;;;4.28;73.53
26083;BME280;13848;49.018;12.078;2023-02-12T00:55:27;99524.88;;;4.25;73.93
26083;BME280;13848;49.018;12.078;2023-02-12T00:57:53;99516.72;;;4.26;73.88
26083;BME280;13848;49.018;12.078;2023-02-12T01:00:20;99519.53;;;4.35;74.17
26083;BME280;13848;49.018;12.078;2023-02-12T01:02:46;99517.00;;;4.33;73.74
26083;BME280;13848;49.018;12.078;2023-02-12T01:05:12;99511.97;;;4.30;73.26
26083;BME280;13848;49.018;12.078;2023-02-12T01:07:38;99520.09;;;4.28;73.85
26083;BME280;13848;49.018;12.078;2023-02-12T01:10:06;99521.22;;;4.26;73.99
26083;BME280;13848;49.018;12.078;2023-02-12T01:12:32;99531.44;;;4.21;74.22
26083;BME280;13848;49.018;12.078;2023-02-12T01:14:59;99535.53;;;4.25;74.01
26083;BME280;13848;49.018;12.078;2023-02-12T01:17:26;99537.22;;;4.26;74.40
26083;BME280;13848;49.018;12.078;2023-02-12T01:19:55;99544.97;;;4.29;73.62
26083;BME280;13848;49.018;12.078;2023-02-12T01:22:21;99536.25;;;4.27;74.01
26083;BME280;13848;49.018;12.078;2023-02-12T01:24:47;99544.25;;;4.27;73.31
26083;BME280;13848;49.018;12.078;2023-02-12T01:27:14;99541.88;;;4.24;74.14
26083;BME280;13848;49.018;12.078;2023-02-12T01:29:40;99534.97;;;4.21;73.57
26083;BME280;13848;49.018;12.078;2023-02-12T01:32:06;99538.47;;;4.22;74.52
26083;BME280;13848;49.018;12.078;2023-02-12T01:34:33;99533.88;;;4.24;74.32
26083;BME280;13848;49.018;12.078;2023-02-12T01:36:59;99526.56;;;4.26;74.46
26083;BME280;13848;49.018;12.078;2023-02-12T01:39:25;99528.09;;;4.28;74.80
26083;BME280;13848;49.018;12.078;2023-02-12T01:41:53;99511.97;;;4.30;74.64
26083;BME280;13848;49.018;12.078;2023-02-12T01:44:21;99521.78;;;4.30;74.41
26083;BME280;13848;49.018;12.078;2023-02-12T01:46:49;99517.31;;;4.30;75.13
26083;BME280;13848;49.018;12.078;2023-02-12T01:49:27;99526.28;;;4.29;74.17
26083;BME280;13848;49.018;12.078;2023-02-12T01:52:00;99529.66;;;4.31;74.59
26083;BME280;13848;49.018;12.078;2023-02-12T01:54:29;99522.34;;;4.33;74.64
26083;BME280;13848;49.018;12.078;2023-02-12T01:56:55;99519.97;;;4.40;74.94
26083;BME280;13848;49.018;12.078;2023-02-12T01:59:22;99522.09;;;4.36;75.27
26083;BME280;13848;49.018;12.078;2023-02-12T02:01:49;99524.03;;;4.34;74.99
26083;BME280;13848;49.018;12.078;2023-02-12T02:04:18;99537.94;;;4.28;75.41
26083;BME280;13848;49.018;12.078;2023-02-12T02:06:49;99526.28;;;4.29;74.93
26083;BME280;13848;49.018;12.078;2023-02-12T02:09:19;99545.69;;;4.31;74.98
26083;BME280;13848;49.018;12.078;2023-02-12T02:11:45;99545.38;;;4.24;74.47
26083;BME280;13848;49.018;12.078;2023-02-12T02:14:11;99548.16;;;4.23;74.84
26083;BME280;13848;49.018;12.078;2023-02-12T02:16:43;99544.22;;;4.17;75.16
26083;BME280;13848;49.018;12.078;2023-02-12T02:19:18;99550.69;;;4.15;74.46
26083;BME280;13848;49.018;12.078;2023-02-12T02:22:01;99552.66;;;4.22;74.49
26083;BME280;13848;49.018;12.078;2023-02-12T02:27:29;99542.31;;;4.29;74.13
26083;BME280;13848;49.018;12.078;2023-02-12T02:33:09;99534.41;;;4.27;74.84
26083;BME280;13848;49.018;12.078;2023-02-12T02:35:40;99544.53;;;4.24;75.38
26083;BME280;13848;49.018;12.078;2023-02-12T02:38:19;99535.81;;;4.22;75.57
26083;BME280;13848;49.018;12.078;2023-02-12T02:40:50;99537.91;;;4.18;76.35
26083;BME280;13848;49.018;12.078;2023-02-12T02:43:22;99537.50;;;4.23;76.09
26083;BME280;13848;49.018;12.078;2023-02-12T02:45:54;99547.63;;;4.19;76.63
26083;BME280;13848;49.018;12.078;2023-02-12T02:48:26;99541.97;;;4.13;75.98
26083;BME280;13848;49.018;12.078;2023-02-12T02:50:59;99540.28;;;4.12;76.06
26083;BME280;13848;49.018;12.078;2023-02-12T02:53:30;99541.97;;;4.13;76.64
26083;BME280;13848;49.018;12.078;2023-02-12T02:55:58;99543.91;;;4.11;76.96
26083;BME280;13848;49.018;12.078;2023-02-12T02:58:29;99545.34;;;4.15;77.27
26083;BME280;13848;49.018;12.078;2023-02-12T03:00:58;99556.31;;;4.12;77.89
26083;BME280;13848;49.018;12.078;2023-02-12T03:03:31;99548.31;;;4.12;78.04
26083;BME280;13848;49.018;12.078;2023-02-12T03:06:02;99547.03;;;4.16;77.63
26083;BME280;13848;49.018;12.078;2023-02-12T03:08:34;99537.78;;;4.20;77.79
26083;BME280;13848;49.018;12.078;2023-02-12T03:11:06;99544.81;;;4.21;77.97
26083;BME280;13848;49.018;12.078;2023-02-12T03:13:38;99540.75;;;4.26;77.45
26083;BME280;13848;49.018;12.078;2023-02-12T03:16:08;99537.94;;;4.28;77.65
26083;BME280;13848;49.018;12.078;2023-02-12T03:18:41;99540.03;;;4.24;78.34
26083;BME280;13848;49.018;12.078;2023-02-12T03:21:11;99544.81;;;4.21;78.83
26083;BME280;13848;49.018;12.078;2023-02-12T03:23:41;99550.13;;;4.21;78.38
26083;BME280;13848;49.018;12.078;2023-02-12T03:26:13;99547.88;;;4.16;78.69
26083;BME280;13848;49.018;12.078;2023-02-12T03:28:40;99551.47;;;4.06;79.78
26083;BME280;13848;49.018;12.078;2023-02-12T03:31:10;99558.00;;;4.13;78.89
26083;BME280;13848;49.018;12.078;2023-02-12T03:33:44;99552.91;;;4.10;78.30
26083;BME280;13848;49.018;12.078;2023-02-12T03:36:21;99556.56;;;4.09;78.75
26083;BME280;13848;49.018;12.078;2023-02-12T03:38:52;99567.47;;;3.96;79.76
26083;BME280;13848;49.018;12.078;2023-02-12T03:41:21;99567.41;;;3.86;79.90
26083;BME280;13848;49.018;12.078;2023-02-12T03:43:53;99577.09;;;3.87;80.60
26083;BME280;13848;49.018;12.078;2023-02-12T03:46:25;99573.59;;;3.87;80.31
26083;BME280;13848;49.018;12.078;2023-02-12T03:49:00;99569.09;;;3.87;80.84
26083;BME280;13848;49.018;12.078;2023-02-12T03:51:30;99570.78;;;3.88;80.41
26083;BME280;13848;49.018;12.078;2023-02-12T03:53:57;99580.03;;;3.84;80.91
26083;BME280;13848;49.018;12.078;2023-02-12T03:56:26;99574.56;;;3.86;81.13
26083;BME280;13848;49.018;12.078;2023-02-12T03:58:54;99574.72;;;3.84;81.42
26083;BME280;13848;49.018;12.078;2023-02-12T04:01:20;99580.88;;;3.85;81.63
26083;BME280;13848;49.018;12.078;2023-02-12T04:03:47;99572.75;;;3.86;81.70
26083;BME280;13848;49.018;12.078;2023-02-12T04:06:22;99581.72;;;3.85;81.39
26083;BME280;13848;49.018;12.078;2023-02-12T04:08:49;99589.22;;;3.91;80.73
26083;BME280;13848;49.018;12.078;2023-02-12T04:11:22;99586.53;;;3.91;81.97
26083;BME280;13848;49.018;12.078;2023-02-12T04:14:01;99589.91;;;3.93;81.17
26083;BME280;13848;49.018;12.078;2023-02-12T04:16:39;99592.31;;;3.96;81.06
26083;BME280;13848;49.018;12.078;2023-02-12T04:19:06;99587.25;;;3.93;81.97
26083;BME280;13848;49.018;12.078;2023-02-12T04:21:43;99594.16;;;3.96;82.23
26083;BME280;13848;49.018;12.078;2023-02-12T04:24:18;99595.00;;;3.96;81.35
26083;BME280;13848;49.018;12.078;2023-02-12T04:26:49;99596.44;;;4.00;81.36
26083;BME280;13848;49.018;12.078;2023-02-12T04:29:22;99587.69;;;3.98;81.22
26083;BME280;13848;49.018;12.078;2023-02-12T04:31:54;99594.84;;;3.98;82.18
26083;BME280;13848;49.018;12.078;2023-02-12T04:34:25;99592.25;;;4.08;80.86
26083;BME280;13848;49.018;12.078;2023-02-12T04:36:55;99594.19;;;4.06;82.38
26083;BME280;13848;49.018;12.078;2023-02-12T04:39:27;99612.16;;;4.04;82.63
26083;BME280;13848;49.018;12.078;2023-02-12T04:41:57;99605.13;;;4.03;82.82
26083;BME280;13848;49.018;12.078;2023-02-12T04:44:24;99603.44;;;4.02;82.70
26083;BME280;13848;49.018;12.078;2023-02-12T04:46:51;99596.44;;;4.00;82.52
26083;BME280;13848;49.018;12.078;2023-02-12T04:49:19;99598.13;;;4.02;82.27
26083;BME280;13848;49.018;12.078;2023-02-12T04:51:45;99604.44;;;4.00;82.07
26083;BME280;13848;49.018;12.078;2023-02-12T04:54:14;99608.78;;;4.02;82.29
26083;BME280;13848;49.018;12.078;2023-02-12T04:56:40;99610.47;;;4.03;82.07
26083;BME280;13848;49.018;12.078;2023-02-12T04:59:06;99612.16;;;4.04;81.90
26083;BME280;13848;49.018;12.078;2023-02-12T05:01:33;99610.31;;;3.94;81.70
26083;BME280;13848;49.018;12.078;2023-02-12T05:04:00;99610.81;;;3.88;81.89
26083;BME280;13848;49.018;12.078;2023-02-12T05:06:26;99609.13;;;3.87;81.88
26083;BME280;13848;49.018;12.078;2023-02-12T05:08:52;99615.44;;;3.86;82.17
26083;BME280;13848;49.018;12.078;2023-02-12T05:11:20;99615.97;;;3.80;82.23
26083;BME280;13848;49.018;12.078;2023-02-12T05:13:47;99620.47;;;3.80;82.84
26083;BME280;13848;49.018;12.078;2023-02-12T05:16:13;99617.94;;;3.78;82.95
26083;BME280;13848;49.018;12.078;2023-02-12T05:18:39;99626.91;;;3.77;83.28
26083;BME280;13848;49.018;12.078;2023-02-12T05:21:05;99620.69;;;3.77;83.22
26083;BME280;13848;49.018;12.078;2023-02-12T05:23:33;99623.25;;;3.78;82.81
26083;BME280;13848;49.018;12.078;2023-02-12T05:26:01;99619.84;;;3.76;82.97
26083;BME280;13848;49.018;12.078;2023-02-12T05:28:28;99625.41;;;3.84;82.15
26083;BME280;13848;49.018;12.078;2023-02-12T05:30:58;99622.47;;;3.87;82.63
26083;BME280;13848;49.018;12.078;2023-02-12T05:33:24;99630.16;;;3.81;83.49
26083;BME280;13848;49.018;12.078;2023-02-12T05:35:50;99629.63;;;3.87;83.07
26083;BME280;13848;49.018;12.078;2023-02-12T05:38:16;99627.78;;;3.87;83.00
26083;BME280;13848;49.018;12.078;2023-02-12T05:40:42;99625.25;;;3.86;83.63
26083;BME280;13848;49.018;12.078;2023-02-12T05:43:08;99626.25;;;3.85;83.24
26083;BME280;13848;49.018;12.078;2023-02-12T05:45:35;99628.63;;;3.88;82.61
26083;BME280;13848;49.018;12.078;2023-02-12T05:48:01;99638.22;;;3.90;82.74
26083;BME280;13848;49.018;12.078;2023-02-12T05:50:27;99633.72;;;3.91;82.58
26083;BME280;13848;49.018;12.078;2023-02-12T05:52:53;99629.47;;;3.88;83.18
26083;BME280;13848;49.018;12.078;2023-02-12T05:55:19;99629.09;;;3.93;83.03
26083;BME280;13848;49.018;12.078;2023-02-12T05:57:45;99632.34;;;3.96;83.02
26083;BME280;13848;49.018;12.078;2023-02-12T06:00:12;99633.59;;;3.92;82.73
26083;BME280;13848;49.018;12.078;2023-02-12T06:02:40;99632.59;;;3.93;82.78
26083;BME280;13848;49.018;12.078;2023-02-12T06:05:06;99635.41;;;3.92;83.26
26083;BME280;13848;49.018;12.078;2023-02-12T06:07:32;99634.81;;;3.88;82.93
26083;BME280;13848;49.018;12.078;2023-02-12T06:09:58;99630.91;;;3.92;82.91
26083;BME280;13848;49.018;12.078;2023-02-12T06:12:24;99639.97;;;4.01;82.63
26083;BME280;13848;49.018;12.078;2023-02-12T06:14:50;99645.69;;;3.96;83.03
26083;BME280;13848;49.018;12.078;2023-02-12T06:17:16;99647.53;;;3.96;82.91
26083;BME280;13848;49.018;12.078;2023-02-12T06:19:43;99643.59;;;4.00;82.54
26083;BME280;13848;49.018;12.078;2023-02-12T06:22:09;99654.41;;;3.98;82.45
26083;BME280;13848;49.018;12.078;2023-02-12T06:24:35;99655.16;;;4.00;82.68
26083;BME280;13848;49.018;12.078;2023-02-12T06:27:01;99653.94;;;3.93;83.36
26083;BME280;13848;49.018;12.078;2023-02-12T06:29:27;99653.09;;;3.93;83.42
26083;BME280;13848;49.018;12.078;2023-02-12T06:31:53;99658.44;;;3.93;82.57
26083;BME280;13848;49.018;12.078;2023-02-12T06:34:19;99666.34;;;3.94;82.97
26083;BME280;13848;49.018;12.078;2023-02-12T06:36:47;99670.56;;;3.97;82.55
26083;BME280;13848;49.018;12.078;2023-02-12T06:39:14;99670.56;;;3.97;82.88
26083;BME280;13848;49.018;12.078;2023-02-12T06:41:42;99672.00;;;4.01;82.54
26083;BME280;13848;49.018;12.078;2023-02-12T06:44:09;99667.06;;;3.96;82.48
26083;BME280;13848;49.018;12.078;2023-02-12T06:46:35;99675.28;;;3.93;82.60
26083;BME280;13848;49.018;12.078;2023-02-12T06:49:01;99670.63;;;3.86;83.49
26083;BME280;13848;49.018;12.078;2023-02-12T06:51:28;99674.13;;;3.86;83.41
26083;BME280;13848;49.018;12.078;2023-02-12T06:53:56;99682.84;;;3.88;83.10
26083;BME280;13848;49.018;12.078;2023-02-12T06:56:23;99681.91;;;3.89;83.07
26083;BME280;13848;49.018;12.078;2023-02-12T06:58:52;99677.41;;;3.90;82.25
26083;BME280;13848;49.018;12.078;2023-02-12T07:01:20;99674.13;;;3.86;83.00
26083;BME280;13848;49.018;12.078;2023-02-12T07:03:49;99681.44;;;3.84;82.94
26083;BME280;13848;49.018;12.078;2023-02-12T07:06:15;99679.75;;;3.83;83.63
26083;BME280;13848;49.018;12.078;2023-02-12T07:08:41;99683.38;;;3.82;82.56
26083;BME280;13848;49.018;12.078;2023-02-12T07:11:09;99679.16;;;3.80;83.32
26083;BME280;13848;49.018;12.078;2023-02-12T07:13:35;99679.41;;;3.77;83.65
26083;BME280;13848;49.018;12.078;2023-02-12T07:16:06;99680.00;;;3.80;83.48
26083;BME280;13848;49.018;12.078;2023-02-12T07:18:32;99685.09;;;3.83;83.16
26083;BME280;13848;49.018;12.078;2023-02-12T07:20:58;99682.28;;;3.85;83.11
26083;BME280;13848;49.018;12.078;2023-02-12T07:23:24;99683.38;;;3.82;83.74
26083;BME280;13848;49.018;12.078;2023-02-12T07:25:54;99689.22;;;3.76;83.37
26083;BME280;13848;49.018;12.078;2023-02-12T07:28:21;99688.69;;;3.82;83.38
26083;BME280;13848;49.018;12.078;2023-02-12T07:30:47;99696.91;;;3.90;83.77
26083;BME280;13848;49.018;12.078;2023-02-12T07:33:13;99690.22;;;3.96;83.01
26083;BME280;13848;49.018;12.078;2023-02-12T07:35:39;99694.44;;;3.98;83.02
26083;BME280;13848;49.018;12.078;2023-02-12T07:38:04;99691.31;;;3.93;83.78
26083;BME280;13848;49.018;12.078;2023-02-12T07:40:30;99685.13;;;3.93;83.52
26083;BME280;13848;49.018;12.078;2023-02-12T07:42:56;99689.91;;;3.89;84.35
26083;BME280;13848;49.018;12.078;2023-02-12T07:45:24;99690.84;;;3.88;83.76
26083;BME280;13848;49.018;12.078;2023-02-12T07:47:50;99681.47;;;3.94;83.60
26083;BME280;13848;49.018;12.078;2023-02-12T07:50:16;99690.69;;;4.01;84.18
26083;BME280;13848;49.018;12.078;2023-02-12T07:52:42;99696.34;;;4.08;83.58
26083;BME280;13848;49.018;12.078;2023-02-12T07:55:09;99695.09;;;4.12;83.19
26083;BME280;13848;49.018;12.078;2023-02-12T07:57:35;99700.75;;;4.18;83.87
26083;BME280;13848;49.018;12.078;2023-02-12T08:00:03;99690.94;;;4.19;84.20
26083;BME280;13848;49.018;12.078;2023-02-12T08:02:30;99690.13;;;4.28;83.88
26083;BME280;13848;49.018;12.078;2023-02-12T08:04:56;99685.16;;;4.44;83.46
26083;BME280;13848;49.018;12.078;2023-02-12T08:07:23;99688.19;;;4.61;83.70
26083;BME280;13848;49.018;12.078;2023-02-12T08:09:49;99683.72;;;4.71;83.23
26083;BME280;13848;49.018;12.078;2023-02-12T08:12:15;99689.50;;;4.76;82.63
26083;BME280;13848;49.018;12.078;2023-02-12T08:14:41;99685.16;;;4.85;82.58
26083;BME280;13848;49.018;12.078;2023-02-12T08:17:07;99693.47;;;4.91;81.84
26083;BME280;13848;49.018;12.078;2023-02-12T08:19:35;99685.59;;;4.90;82.39
26083;BME280;13848;49.018;12.078;2023-02-12T08:22:01;99698.28;;;4.88;82.09
26083;BME280;13848;49.018;12.078;2023-02-12T08:24:28;99700.50;;;4.92;82.06
26083;BME280;13848;49.018;12.078;2023-02-12T08:26:54;99691.66;;;4.92;82.10
26083;BME280;13848;49.018;12.078;2023-02-12T08:29:23;99701.06;;;4.86;82.63
26083;BME280;13848;49.018;12.078;2023-02-12T08:31:50;99695.59;;;4.88;83.05
26083;BME280;13848;49.018;12.078;2023-02-12T08:34:21;99702.22;;;4.93;81.93
26083;BME280;13848;49.018;12.078;2023-02-12T08:36:50;99705.31;;;4.98;82.57
26083;BME280;13848;49.018;12.078;2023-02-12T08:39:17;99707.75;;;5.11;82.29
26083;BME280;13848;49.018;12.078;2023-02-12T08:41:43;99710.28;;;5.13;81.88
26083;BME280;13848;49.018;12.078;2023-02-12T08:44:10;99701.97;;;5.16;81.64
26083;BME280;13848;49.018;12.078;2023-02-12T08:46:37;99704.53;;;5.17;81.82
26083;BME280;13848;49.018;12.078;2023-02-12T08:49:05;99700.03;;;5.18;81.59
26083;BME280;13848;49.018;12.078;2023-02-12T08:51:33;99705.25;;;5.29;82.37
26083;BME280;13848;49.018;12.078;2023-02-12T08:54:02;99706.41;;;5.36;81.98
26083;BME280;13848;49.018;12.078;2023-02-12T08:56:30;99700.06;;;5.47;80.43
26083;BME280;13848;49.018;12.078;2023-02-12T08:58:57;99700.06;;;5.47;80.93
26083;BME280;13848;49.018;12.078;2023-02-12T09:01:25;99702.03;;;5.54;81.40
26083;BME280;13848;49.018;12.078;2023-02-12T09:03:52;99698.38;;;5.55;81.38
26083;BME280;13848;49.018;12.078;2023-02-12T09:06:19;99702.19;;;5.63;80.64
26083;BME280;13848;49.018;12.078;2023-02-12T09:08:47;99698.81;;;5.60;80.44
26083;BME280;13848;49.018;12.078;2023-02-12T09:11:16;99703.16;;;5.71;80.36
26083;BME280;13848;49.018;12.078;2023-02-12T09:13:43;99709.38;;;5.72;80.74
26083;BME280;13848;49.018;12.078;2023-02-12T09:16:09;99712.47;;;5.77;80.75
26083;BME280;13848;49.018;12.078;2023-02-12T09:18:35;99714.16;;;5.78;80.62
26083;BME280;13848;49.018;12.078;2023-02-12T09:21:02;99715.56;;;5.82;80.92
26083;BME280;13848;49.018;12.078;2023-02-12T09:23:29;99719.66;;;5.96;80.13
26083;BME280;13848;49.018;12.078;2023-02-12T09:25:55;99716.31;;;6.03;79.84
26083;BME280;13848;49.018;12.078;2023-02-12T09:28:23;99713.06;;;6.00;79.09
26083;BME280;13848;49.018;12.078;2023-02-12T09:30:49;99719.66;;;6.05;79.57
26083;BME280;13848;49.018;12.078;2023-02-12T09:33:15;99718.97;;;6.03;80.28
26083;BME280;13848;49.018;12.078;2023-02-12T09:35:41;99720.25;;;6.09;80.03
26083;BME280;13848;49.018;12.078;2023-02-12T09:38:07;99717.25;;;6.12;79.60
26083;BME280;13848;49.018;12.078;2023-02-12T09:40:39;99719.09;;;6.11;79.34
26083;BME280;13848;49.018;12.078;2023-02-12T09:43:16;99721.47;;;6.14;79.77
26083;BME280;13848;49.018;12.078;2023-02-12T09:45:51;99727.81;;;6.13;79.34
26083;BME280;13848;49.018;12.078;2023-02-12T09:48:34;99724.72;;;6.18;80.19
26083;BME280;13848;49.018;12.078;2023-02-12T09:51:05;99729.06;;;6.29;80.03
26083;BME280;13848;49.018;12.078;2023-02-12T09:53:35;99724.88;;;6.17;79.90
26083;BME280;13848;49.018;12.078;2023-02-12T09:56:07;99723.19;;;6.16;78.91
26083;BME280;13848;49.018;12.078;2023-02-12T09:58:37;99727.13;;;6.11;79.03
26083;BME280;13848;49.018;12.078;2023-02-12T10:01:10;99724.00;;;6.26;79.06
26083;BME280;13848;49.018;12.078;2023-02-12T10:03:37;99724.25;;;6.42;79.70
26083;BME280;13848;49.018;12.078;2023-02-12T10:06:05;99727.53;;;6.26;79.28
26083;BME280;13848;49.018;12.078;2023-02-12T10:08:45;99733.03;;;6.25;78.83
26083;BME280;13848;49.018;12.078;2023-02-12T10:11:28;99731.84;;;6.56;78.88
26083;BME280;13848;49.018;12.078;2023-02-12T10:14:07;99722.47;;;6.70;79.09
26083;BME280;13848;49.018;12.078;2023-02-12T10:16:50;99726.47;;;6.56;78.35
26083;BME280;13848;49.018;12.078;2023-02-12T10:19:30;99729.66;;;6.70;78.91
26083;BME280;13848;49.018;12.078;2023-02-12T10:22:04;99732.34;;;6.70;78.78
26083;BME280;13848;49.018;12.078;2023-02-12T10:24:47;99733.16;;;6.80;78.54
26083;BME280;13848;49.018;12.078;2023-02-12T10:27:18;99728.97;;;6.68;77.43
26083;BME280;13848;49.018;12.078;2023-02-12T10:29:46;99723.63;;;6.68;77.60
26083;BME280;13848;49.018;12.078;2023-02-12T10:32:22;99726.06;;;6.88;77.27
26083;BME280;13848;49.018;12.078;2023-02-12T10:34:51;99724.34;;;6.97;77.56
26083;BME280;13848;49.018;12.078;2023-02-12T10:37:27;99728.66;;;7.08;76.81
26083;BME280;13848;49.018;12.078;2023-02-12T10:39:58;99731.06;;;7.01;75.88
26083;BME280;13848;49.018;12.078;2023-02-12T10:42:35;99731.16;;;6.91;76.53
26083;BME280;13848;49.018;12.078;2023-02-12T10:45:03;99732.00;;;7.19;76.58
26083;BME280;13848;49.018;12.078;2023-02-12T10:47:31;99726.75;;;7.63;76.99
26083;BME280;13848;49.018;12.078;2023-02-12T10:49:58;99730.56;;;8.14;75.69
26083;BME280;13848;49.018;12.078;2023-02-12T10:52:34;99732.09;;;9.29;74.80
26083;BME280;13848;49.018;12.078;2023-02-12T10:55:22;99723.78;;;8.72;73.58
26083;BME280;13848;49.018;12.078;2023-02-12T10:57:49;99729.66;;;8.75;71.95
26083;BME280;13848;49.018;12.078;2023-02-12T11:00:24;99735.59;;;8.53;71.91
26083;BME280;13848;49.018;12.078;2023-02-12T11:03:05;99723.66;;;8.56;72.59
26083;BME280;13848;49.018;12.078;2023-02-12T11:05:33;99723.66;;;8.82;72.07
26083;BME280;13848;49.018;12.078;2023-02-12T11:08:00;99720.88;;;9.50;71.92
26083;BME280;13848;49.018;12.078;2023-02-12T11:10:27;99719.91;;;9.83;71.37
26083;BME280;13848;49.018;12.078;2023-02-12T11:12:54;99707.47;;;9.82;69.54
26083;BME280;13848;49.018;12.078;2023-02-12T11:15:22;99713.53;;;9.93;68.44
26083;BME280;13848;49.018;12.078;2023-02-12T11:17:55;99712.19;;;10.37;67.17
26083;BME280;13848;49.018;12.078;2023-02-12T11:20:26;99711.03;;;10.96;65.50
26083;BME280;13848;49.018;12.078;2023-02-12T11:22:54;99706.31;;;11.37;67.75
26083;BME280;13848;49.018;12.078;2023-02-12T11:25:22;99702.41;;;11.39;66.76
26083;BME280;13848;49.018;12.078;2023-02-12T11:28:00;99696.63;;;11.19;62.93
26083;BME280;13848;49.018;12.078;2023-02-12T11:30:27;99701.56;;;11.00;65.11
26083;BME280;13848;49.018;12.078;2023-02-12T11:32:53;99701.25;;;11.34;62.46
26083;BME280;13848;49.018;12.078;2023-02-12T11:35:21;99698.56;;;11.34;63.92
26083;BME280;13848;49.018;12.078;2023-02-12T11:37:49;99693.38;;;11.55;63.74
26083;BME280;13848;49.018;12.078;2023-02-12T11:40:18;99694.44;;;11.15;63.20
26083;BME280;13848;49.018;12.078;2023-02-12T11:42:48;99697.00;;;11.39;62.80
26083;BME280;13848;49.018;12.078;2023-02-12T11:45:16;99695.63;;;11.43;62.28
26083;BME280;13848;49.018;12.078;2023-02-12T11:47:43;99705.78;;;10.47;62.81
26083;BME280;13848;49.018;12.078;2023-02-12T11:50:19;99700.66;;;10.76;64.46
26083;BME280;13848;49.018;12.078;2023-02-12T11:52:50;99702.28;;;11.02;63.99
26083;BME280;13848;49.018;12.078;2023-02-12T11:55:21;99702.81;;;11.28;64.07
26083;BME280;13848;49.018;12.078;2023-02-12T11:57:50;99698.53;;;11.03;62.45
26083;BME280;13848;49.018;12.078;2023-02-12T12:00:18;99702.84;;;10.81;62.55
26083;BME280;13848;49.018;12.078;2023-02-12T12:02:49;99703.50;;;10.83;62.09
26083;BME280;13848;49.018;12.078;2023-02-12T12:05:21;99698.31;;;10.65;62.15
26083;BME280;13848;49.018;12.078;2023-02-12T12:07:55;99700.34;;;10.55;62.78
26083;BME280;13848;49.018;12.078;2023-02-12T12:10:30;99703.78;;;10.32;63.19
26083;BME280;13848;49.018;12.078;2023-02-12T12:13:01;99699.22;;;10.17;62.86
26083;BME280;13848;49.018;12.078;2023-02-12T12:15:31;99699.72;;;10.12;62.63
26083;BME280;13848;49.018;12.078;2023-02-12T12:18:07;99701.06;;;10.57;64.45
26083;BME280;13848;49.018;12.078;2023-02-12T12:20:38;99697.00;;;10.53;62.12
26083;BME280;13848;49.018;12.078;2023-02-12T12:23:10;99701.88;;;10.57;63.07
26083;BME280;13848;49.018;12.078;2023-02-12T12:25:42;99690.13;;;10.18;63.55
26083;BME280;13848;49.018;12.078;2023-02-12T12:28:24;99695.50;;;10.42;62.69
26083;BME280;13848;49.018;12.078;2023-02-12T12:30:57;99689.94;;;9.78;63.93
26083;BME280;13848;49.018;12.078;2023-02-12T12:33:37;99693.81;;;10.08;63.42
26083;BME280;13848;49.018;12.078;2023-02-12T12:36:30;99689.28;;;10.17;64.17
26083;BME280;13848;49.018;12.078;2023-02-12T12:39:05;99690.31;;;10.24;63.05
26083;BME280;13848;49.018;12.078;2023-02-12T12:41:49;99690.63;;;10.29;62.72
26083;BME280;13848;49.018;12.078;2023-02-12T12:44:29;99692.31;;;10.22;64.80
26083;BME280;13848;49.018;12.078;2023-02-12T12:47:12;99683.75;;;11.53;61.27
26083;BME280;13848;49.018;12.078;2023-02-12T12:49:49;99683.59;;;11.77;58.88
26083;BME280;13848;49.018;12.078;2023-02-12T12:58:37;99676.31;;;11.24;60.84
26083;BME280;13848;49.018;12.078;2023-02-12T13:04:31;99683.03;;;11.90;58.49
26083;BME280;13848;49.018;12.078;2023-02-12T13:07:11;99681.38;;;12.41;58.54
26083;BME280;13848;49.018;12.078;2023-02-12T13:09:57;99670.09;;;13.63;56.65
26083;BME280;13848;49.018;12.078;2023-02-12T13:12:49;99680.06;;;14.05;54.84
26083;BME280;13848;49.018;12.078;2023-02-12T13:15:27;99675.94;;;14.09;53.22
26083;BME280;13848;49.018;12.078;2023-02-12T13:18:06;99666.41;;;13.92;51.96
26083;BME280;13848;49.018;12.078;2023-02-12T13:20:42;99669.81;;;13.79;54.00
26083;BME280;13848;49.018;12.078;2023-02-12T13:23:14;99677.34;;;13.26;52.94
26083;BME280;13848;49.018;12.078;2023-02-12T13:25:48;99676.03;;;12.18;55.02